createdAt,value
2023-06-19T00:01:59.675Z,59.52
2023-06-19T00:04:28.884Z,58.98
2023-06-19T00:06:58.370Z,57.58
2023-06-19T00:09:26.321Z,58.78
2023-06-19T00:11:55.065Z,56.89
2023-06-19T00:14:23.360Z,57.76
2023-06-19T00:16:52.543Z,59.62
2023-06-19T00:19:20.756Z,60.50
2023-06-19T00:21:48.754Z,62.04
2023-06-19T00:24:18.772Z,61.86
2023-06-19T00:26:47.262Z,61.10
2023-06-19T00:29:15.858Z,62.41
2023-06-19T00:31:43.818Z,62.21
2023-06-19T00:34:11.953Z,62.72
2023-06-19T00:36:42.105Z,64.79
2023-06-19T00:39:10.365Z,66.04
2023-06-19T00:41:41.482Z,66.98
2023-06-19T00:44:09.560Z,66.25
2023-06-19T00:46:42.811Z,66.09
2023-06-19T00:49:10.912Z,66.22
2023-06-19T00:51:40.290Z,64.93
2023-06-19T00:54:09.598Z,64.63
2023-06-19T00:56:42.295Z,63.38
2023-06-19T00:59:18.745Z,63.30
2023-06-19T01:01:47.492Z,62.64
2023-06-19T01:04:16.801Z,62.90
2023-06-19T01:06:53.707Z,62.79
2023-06-19T01:09:23.774Z,62.63
2023-06-19T01:12:00.389Z,62.70
2023-06-19T01:14:30.821Z,63.63
2023-06-19T01:16:59.726Z,63.96
2023-06-19T01:19:28.691Z,64.72
2023-06-19T01:21:56.646Z,64.35
2023-06-19T01:24:26.354Z,63.83
2023-06-19T01:26:54.832Z,63.12
2023-06-19T01:29:23.436Z,63.00
2023-06-19T01:31:57.732Z,62.48
2023-06-19T01:34:29.844Z,62.61
2023-06-19T01:36:59.289Z,62.71
2023-06-19T01:39:30.286Z,62.29
2023-06-19T01:41:59.279Z,62.02
2023-06-19T01:44:27.719Z,61.73
2023-06-19T01:46:56.397Z,61.33
2023-06-19T01:49:24.724Z,61.27
2023-06-19T01:51:52.836Z,62.03
2023-06-19T01:54:21.435Z,61.18
2023-06-19T01:56:50.905Z,61.05
2023-06-19T01:59:20.003Z,60.30
2023-06-19T02:01:48.148Z,60.19
2023-06-19T02:04:16.718Z,60.15
2023-06-19T02:06:45.260Z,59.99
2023-06-19T02:09:13.331Z,60.09
2023-06-19T02:11:41.506Z,59.44
2023-06-19T02:14:12.363Z,59.87
2023-06-19T02:16:42.595Z,59.35
2023-06-19T02:19:10.990Z,59.29
2023-06-19T02:21:39.749Z,57.90
2023-06-19T02:24:08.093Z,55.76
2023-06-19T02:26:36.562Z,55.82
2023-06-19T02:29:05.041Z,56.09
2023-06-19T02:31:34.374Z,57.00
2023-06-19T02:34:02.404Z,57.44
2023-06-19T02:36:32.016Z,56.58
2023-06-19T02:39:01.259Z,56.75
2023-06-19T02:41:29.475Z,56.18
2023-06-19T02:43:58.107Z,57.08
2023-06-19T02:46:26.286Z,56.70
2023-06-19T02:48:55.833Z,57.09
2023-06-19T02:51:24.373Z,56.47
2023-06-19T02:53:52.554Z,56.26
2023-06-19T02:56:21.044Z,56.22
2023-06-19T02:58:49.609Z,55.65
2023-06-19T03:01:17.886Z,56.86
2023-06-19T03:03:47.821Z,56.84
2023-06-19T03:06:19.217Z,56.36
2023-06-19T03:08:47.246Z,56.01
2023-06-19T03:11:15.831Z,55.36
2023-06-19T03:13:49.404Z,54.02
2023-06-19T03:16:18.075Z,53.39
2023-06-19T03:18:46.819Z,52.64
2023-06-19T03:21:17.109Z,52.33
2023-06-19T03:23:45.687Z,52.25
2023-06-19T03:26:13.646Z,52.50
2023-06-19T03:28:42.248Z,52.33
2023-06-19T03:31:10.825Z,52.00
2023-06-19T03:33:38.855Z,51.41
2023-06-19T03:36:07.891Z,51.33
2023-06-19T03:38:37.788Z,51.21
2023-06-19T03:41:05.959Z,51.61
2023-06-19T03:43:34.149Z,51.19
2023-06-19T03:46:02.807Z,51.22
2023-06-19T03:48:30.970Z,50.98
2023-06-19T03:50:59.261Z,50.60
2023-06-19T03:53:27.882Z,49.29
2023-06-19T03:55:57.524Z,50.15
2023-06-19T03:58:25.701Z,50.22
2023-06-19T04:00:54.254Z,50.26
2023-06-19T04:03:22.822Z,50.19
2023-06-19T04:05:51.050Z,50.12
2023-06-19T04:08:19.732Z,50.08
2023-06-19T04:10:47.963Z,49.51
2023-06-19T04:13:17.784Z,49.24
2023-06-19T04:15:48.597Z,49.45
2023-06-19T04:18:18.978Z,48.03
2023-06-19T04:20:47.619Z,47.58
2023-06-19T04:23:16.032Z,47.80
2023-06-19T04:25:44.802Z,48.55
2023-06-19T04:28:13.025Z,48.91
2023-06-19T04:30:44.006Z,49.00
2023-06-19T04:33:12.747Z,48.57
2023-06-19T04:35:42.068Z,48.80
2023-06-19T04:38:11.331Z,48.43
2023-06-19T04:40:39.904Z,47.52
2023-06-19T04:43:07.964Z,47.03
2023-06-19T04:45:36.116Z,45.22
2023-06-19T04:48:06.817Z,42.52
2023-06-19T04:50:34.829Z,39.88
2023-06-19T04:53:03.363Z,37.18
2023-06-19T04:55:31.726Z,37.73
2023-06-19T04:58:00.457Z,36.27
2023-06-19T05:00:29.226Z,38.40
2023-06-19T05:03:00.654Z,36.41
2023-06-19T05:05:31.281Z,36.63
2023-06-19T05:07:59.771Z,39.13
2023-06-19T05:10:28.305Z,40.84
2023-06-19T05:12:56.988Z,41.38
2023-06-19T05:15:25.061Z,42.33
2023-06-19T05:17:53.777Z,41.77
2023-06-19T05:20:22.427Z,42.51
2023-06-19T05:22:52.103Z,42.67
2023-06-19T05:25:20.819Z,40.63
2023-06-19T05:27:48.965Z,38.15
2023-06-19T05:30:17.815Z,37.77
2023-06-19T05:32:46.950Z,38.94
2023-06-19T05:35:16.737Z,39.19
2023-06-19T05:37:46.019Z,38.08
2023-06-19T05:40:16.219Z,38.64
2023-06-19T05:42:44.726Z,38.37
2023-06-19T05:45:13.725Z,38.70
2023-06-19T05:47:43.521Z,38.73
2023-06-19T05:50:12.836Z,39.12
2023-06-19T05:52:44.525Z,39.20
2023-06-19T05:55:13.564Z,39.05
2023-06-19T05:57:43.507Z,38.73
2023-06-19T06:00:15.835Z,38.87
2023-06-19T06:02:44.205Z,39.32
2023-06-19T06:05:12.317Z,40.69
2023-06-19T06:07:41.603Z,41.28
2023-06-19T06:10:10.773Z,41.52
2023-06-19T06:12:39.962Z,41.94
2023-06-19T06:15:11.048Z,41.73
2023-06-19T06:17:39.241Z,42.75
2023-06-19T06:20:13.951Z,42.67
2023-06-19T06:22:42.628Z,41.57
2023-06-19T06:25:13.851Z,41.84
2023-06-19T06:27:43.188Z,41.72
2023-06-19T06:30:14.736Z,41.81
2023-06-19T06:32:42.956Z,41.53
2023-06-19T06:35:11.911Z,40.21
2023-06-19T06:37:40.141Z,41.42
2023-06-19T06:40:12.696Z,40.90
2023-06-19T06:42:41.030Z,40.78
2023-06-19T06:45:10.500Z,40.74
2023-06-19T06:47:41.690Z,39.71
2023-06-19T06:50:11.815Z,38.79
2023-06-19T06:52:40.076Z,37.79
2023-06-19T06:55:09.256Z,35.24
2023-06-19T06:57:37.346Z,36.27
2023-06-19T07:00:08.269Z,35.31
2023-06-19T07:02:36.953Z,35.88
2023-06-19T07:05:07.289Z,36.21
2023-06-19T07:07:35.534Z,34.53
2023-06-19T07:10:05.229Z,35.03
2023-06-19T07:12:33.792Z,32.52
2023-06-19T07:15:02.829Z,32.51
2023-06-19T07:17:31.773Z,32.12
2023-06-19T07:20:00.111Z,31.39
2023-06-19T07:22:29.737Z,32.27
2023-06-19T07:24:58.422Z,29.73
2023-06-19T07:27:28.787Z,28.21
2023-06-19T07:29:57.146Z,27.60
2023-06-19T07:32:25.831Z,29.27
2023-06-19T07:34:53.992Z,26.13
2023-06-19T07:37:22.722Z,23.85
2023-06-19T07:39:54.031Z,23.18
2023-06-19T07:42:22.633Z,23.86
2023-06-19T07:44:50.937Z,25.28
2023-06-19T07:47:22.254Z,26.40
2023-06-19T07:49:50.606Z,25.34
2023-06-19T07:52:18.736Z,28.51
2023-06-19T07:54:58.114Z,29.45
2023-06-19T07:57:27.575Z,29.51
2023-06-19T07:59:57.457Z,29.68
2023-06-19T08:02:25.686Z,30.76
2023-06-19T08:04:54.857Z,31.44
2023-06-19T08:07:23.433Z,30.83
2023-06-19T08:10:00.282Z,31.16
2023-06-19T08:12:38.205Z,31.38
2023-06-19T08:15:07.185Z,31.95
2023-06-19T08:17:35.937Z,32.12
2023-06-19T08:20:06.907Z,31.40
2023-06-19T08:22:35.275Z,33.06
2023-06-19T08:25:03.351Z,32.39
2023-06-19T08:27:32.085Z,32.34
2023-06-19T08:30:01.648Z,32.79
2023-06-19T08:32:33.288Z,32.80
2023-06-19T08:35:01.462Z,33.79
2023-06-19T08:37:30.165Z,32.83
2023-06-19T08:40:01.627Z,31.73
2023-06-19T08:42:30.102Z,30.68
2023-06-19T08:44:59.040Z,31.03
2023-06-19T08:47:35.719Z,31.09
2023-06-19T08:50:05.057Z,30.18
2023-06-19T08:52:34.297Z,28.57
2023-06-19T08:55:03.356Z,29.14
2023-06-19T08:57:39.723Z,28.60
2023-06-19T09:00:12.424Z,25.16
2023-06-19T09:02:44.591Z,26.35
2023-06-19T09:05:18.105Z,25.63
2023-06-19T09:07:47.341Z,24.78
2023-06-19T09:10:20.267Z,25.39
2023-06-19T09:13:01.838Z,25.73
2023-06-19T09:15:32.419Z,26.49
2023-06-19T09:18:10.563Z,26.85
2023-06-19T09:20:45.437Z,24.99
2023-06-19T09:23:14.962Z,21.55
2023-06-19T09:25:48.351Z,21.53
2023-06-19T09:28:21.164Z,20.24
2023-06-19T09:30:58.060Z,21.78
2023-06-19T09:33:29.379Z,23.31
2023-06-19T09:35:58.856Z,24.42
2023-06-19T09:38:28.736Z,22.43
2023-06-19T09:41:02.811Z,21.94
2023-06-19T09:43:36.904Z,22.55
2023-06-19T09:46:06.764Z,23.61
2023-06-19T09:48:37.257Z,24.47
2023-06-19T09:51:13.545Z,25.26
2023-06-19T09:53:42.542Z,26.12
2023-06-19T09:56:11.948Z,27.65
2023-06-19T09:58:41.293Z,28.55
2023-06-19T10:01:09.500Z,27.59
2023-06-19T10:03:39.213Z,27.95
2023-06-19T10:06:07.668Z,28.85
2023-06-19T10:08:42.037Z,29.28
2023-06-19T10:11:10.632Z,28.96
2023-06-19T10:13:41.980Z,30.29
2023-06-19T10:16:21.970Z,29.56
2023-06-19T10:18:52.549Z,29.42
2023-06-19T10:21:21.783Z,29.64
2023-06-19T10:23:58.051Z,30.09
2023-06-19T10:26:34.231Z,29.78
2023-06-19T10:29:03.453Z,29.06
2023-06-19T10:31:33.701Z,28.72
2023-06-19T10:34:06.175Z,30.61
2023-06-19T10:36:34.504Z,29.59
2023-06-19T10:39:03.767Z,29.11
2023-06-19T10:41:33.224Z,28.39
2023-06-19T10:44:03.024Z,28.19
2023-06-19T10:46:33.770Z,28.19
2023-06-19T10:49:05.928Z,25.80
2023-06-19T10:51:38.618Z,24.41
2023-06-19T10:54:08.329Z,23.06
2023-06-19T10:56:37.313Z,24.57
2023-06-19T10:59:07.693Z,24.56
2023-06-19T11:01:38.276Z,24.45
2023-06-19T11:04:09.692Z,24.27
2023-06-19T11:06:40.296Z,24.58
2023-06-19T11:09:10.171Z,24.66
2023-06-19T11:11:40.491Z,26.50
2023-06-19T11:14:09.520Z,24.85
2023-06-19T11:16:41.894Z,27.54
2023-06-19T11:19:12.109Z,25.05
2023-06-19T11:21:40.373Z,25.34
2023-06-19T11:24:14.829Z,25.61
2023-06-19T11:26:45.436Z,26.19
2023-06-19T11:29:18.401Z,26.77
2023-06-19T11:31:48.185Z,25.95
2023-06-19T11:34:23.398Z,27.04
2023-06-19T11:36:53.159Z,26.59
2023-06-19T11:39:22.841Z,26.33
2023-06-19T11:41:52.704Z,25.25
2023-06-19T11:44:22.611Z,24.76
2023-06-19T11:46:50.849Z,25.40
2023-06-19T11:49:20.901Z,26.51
2023-06-19T11:51:49.811Z,27.68
2023-06-19T11:54:18.971Z,27.36
2023-06-19T11:56:49.360Z,28.47
2023-06-19T11:59:17.575Z,29.68
2023-06-19T12:01:45.753Z,30.33
2023-06-19T12:04:15.503Z,30.60
2023-06-19T12:06:45.913Z,30.14
2023-06-19T12:09:14.085Z,29.04
2023-06-19T12:11:42.776Z,28.56
2023-06-19T12:14:11.224Z,28.59
2023-06-19T12:16:39.285Z,28.09
2023-06-19T12:19:08.518Z,29.25
2023-06-19T12:21:40.315Z,29.74
2023-06-19T12:24:12.138Z,29.80
2023-06-19T12:26:41.179Z,28.84
2023-06-19T12:29:09.419Z,29.00
2023-06-19T12:31:38.724Z,29.66
2023-06-19T12:34:21.174Z,30.20
2023-06-19T12:36:56.152Z,30.07
2023-06-19T12:39:26.353Z,30.75
2023-06-19T12:41:54.625Z,30.04
2023-06-19T12:44:26.082Z,29.97
2023-06-19T12:46:54.836Z,31.44
2023-06-19T12:49:23.127Z,32.34
2023-06-19T12:51:53.632Z,31.93
2023-06-19T12:54:22.227Z,30.96
2023-06-19T12:56:52.447Z,31.58
2023-06-19T12:59:21.444Z,31.33
2023-06-19T13:01:49.727Z,31.49
2023-06-19T13:04:18.133Z,31.92
2023-06-19T13:06:46.900Z,31.51
2023-06-19T13:09:15.204Z,31.51
2023-06-19T13:11:43.330Z,31.92
2023-06-19T13:14:13.409Z,32.12
2023-06-19T13:16:46.808Z,32.59
2023-06-19T13:19:18.844Z,32.06
2023-06-19T13:21:47.282Z,32.60
2023-06-19T13:24:15.500Z,32.72
2023-06-19T13:26:44.116Z,32.77
2023-06-19T13:29:14.195Z,32.75
2023-06-19T13:31:45.147Z,32.69
2023-06-19T13:34:13.403Z,32.83
2023-06-19T13:36:42.015Z,32.04
2023-06-19T13:39:10.754Z,32.01
2023-06-19T13:41:39.351Z,32.72
2023-06-19T13:44:07.651Z,32.73
2023-06-19T13:46:37.669Z,32.73
2023-06-19T13:49:05.803Z,30.96
2023-06-19T13:51:34.513Z,31.66
2023-06-19T13:54:04.951Z,31.49
2023-06-19T13:56:33.393Z,31.57
2023-06-19T13:59:01.431Z,31.55
2023-06-19T14:01:30.253Z,31.33
2023-06-19T14:04:00.498Z,31.84
2023-06-19T14:06:28.591Z,31.82
2023-06-19T14:08:57.414Z,31.94
2023-06-19T14:11:25.964Z,32.57
2023-06-19T14:13:54.545Z,31.61
2023-06-19T14:16:23.531Z,31.61
2023-06-19T14:18:51.886Z,31.36
2023-06-19T14:21:23.478Z,32.07
2023-06-19T14:23:51.774Z,32.14
2023-06-19T14:26:20.115Z,33.37
2023-06-19T14:28:49.005Z,32.75
2023-06-19T14:31:17.436Z,32.70
2023-06-19T14:33:45.577Z,32.03
2023-06-19T14:36:14.170Z,32.31
2023-06-19T14:38:44.058Z,32.24
2023-06-19T14:41:12.135Z,32.19
2023-06-19T14:43:40.693Z,31.36
2023-06-19T14:46:09.088Z,31.54
2023-06-19T14:48:37.538Z,31.60
2023-06-19T14:51:06.776Z,31.69
2023-06-19T14:53:34.974Z,31.89
2023-06-19T14:56:04.738Z,31.97
2023-06-19T14:58:32.846Z,31.26
2023-06-19T15:01:01.151Z,32.17
2023-06-19T15:03:29.421Z,32.32
2023-06-19T15:05:58.820Z,31.57
2023-06-19T15:08:28.002Z,31.80
2023-06-19T15:10:56.196Z,31.53
2023-06-19T15:13:26.285Z,31.44
2023-06-19T15:15:54.345Z,31.57
2023-06-19T15:18:23.397Z,31.28
2023-06-19T15:20:52.212Z,31.12
2023-06-19T15:23:20.526Z,31.26
2023-06-19T15:25:50.205Z,31.74
2023-06-19T15:28:19.772Z,31.24
2023-06-19T15:30:49.536Z,31.47
2023-06-19T15:33:19.244Z,31.88
2023-06-19T15:35:48.727Z,31.77
2023-06-19T15:38:16.943Z,31.19
2023-06-19T15:40:45.862Z,31.88
2023-06-19T15:43:14.278Z,31.31
2023-06-19T15:45:42.714Z,32.19
2023-06-19T15:48:12.781Z,32.17
2023-06-19T15:50:41.877Z,32.52
2023-06-19T15:53:10.760Z,33.47
2023-06-19T15:55:39.559Z,32.73
2023-06-19T15:58:07.850Z,33.17
2023-06-19T16:00:36.031Z,33.43
2023-06-19T16:03:05.860Z,33.95
2023-06-19T16:05:35.754Z,34.13
2023-06-19T16:08:04.302Z,33.24
2023-06-19T16:10:33.112Z,33.23
2023-06-19T16:13:01.300Z,34.07
2023-06-19T16:15:30.038Z,34.51
2023-06-19T16:17:58.706Z,34.93
2023-06-19T16:20:28.773Z,34.78
2023-06-19T16:22:59.506Z,35.06
2023-06-19T16:25:27.874Z,34.96
2023-06-19T16:27:58.739Z,35.19
2023-06-19T16:30:28.104Z,34.76
2023-06-19T16:32:56.976Z,35.75
2023-06-19T16:35:25.656Z,35.89
2023-06-19T16:37:55.734Z,35.91
2023-06-19T16:40:27.203Z,36.13
2023-06-19T16:42:56.232Z,36.66
2023-06-19T16:45:28.114Z,36.29
2023-06-19T16:47:56.871Z,36.03
2023-06-19T16:50:25.590Z,36.28
2023-06-19T16:52:54.805Z,37.12
2023-06-19T16:55:25.646Z,36.69
2023-06-19T16:57:54.029Z,37.08
2023-06-19T17:00:23.116Z,37.67
2023-06-19T17:02:56.147Z,37.89
2023-06-19T17:05:25.924Z,38.21
2023-06-19T17:07:53.987Z,38.67
2023-06-19T17:10:24.096Z,39.00
2023-06-19T17:12:55.069Z,38.75
2023-06-19T17:15:23.231Z,38.87
2023-06-19T17:17:51.875Z,39.51
2023-06-19T17:20:20.795Z,39.58
2023-06-19T17:22:49.302Z,39.14
2023-06-19T17:25:18.034Z,39.56
2023-06-19T17:27:46.649Z,39.06
2023-06-19T17:30:16.345Z,39.63
2023-06-19T17:32:47.012Z,40.30
2023-06-19T17:35:15.161Z,39.77
2023-06-19T17:37:44.182Z,39.84
2023-06-19T17:40:14.588Z,39.77
2023-06-19T17:42:43.037Z,40.16
2023-06-19T17:45:12.392Z,39.83
2023-06-19T17:47:42.608Z,39.94
2023-06-19T17:50:12.803Z,39.82
2023-06-19T17:52:41.196Z,40.15
2023-06-19T17:55:10.871Z,40.37
2023-06-19T17:57:41.927Z,41.44
2023-06-19T18:00:11.966Z,41.31
2023-06-19T18:02:41.536Z,41.36
2023-06-19T18:05:09.942Z,41.14
2023-06-19T18:07:38.630Z,41.61
2023-06-19T18:10:07.946Z,41.59
2023-06-19T18:12:36.940Z,41.72
2023-06-19T18:15:05.931Z,41.55
2023-06-19T18:17:34.160Z,41.53
2023-06-19T18:20:03.896Z,41.94
2023-06-19T18:22:32.409Z,41.86
2023-06-19T18:25:00.361Z,42.59
2023-06-19T18:27:28.852Z,42.89
2023-06-19T18:29:57.512Z,42.55
2023-06-19T18:32:25.769Z,42.78
2023-06-19T18:34:55.168Z,43.25
2023-06-19T18:37:25.307Z,43.41
2023-06-19T18:39:54.103Z,43.47
2023-06-19T18:42:22.285Z,43.81
2023-06-19T18:44:50.992Z,43.79
2023-06-19T18:47:18.990Z,43.97
2023-06-19T18:49:46.995Z,44.43
2023-06-19T18:52:15.185Z,44.69
2023-06-19T18:54:44.601Z,45.55
2023-06-19T18:57:13.264Z,45.13
2023-06-19T18:59:41.367Z,45.73
2023-06-19T19:02:11.892Z,45.89
2023-06-19T19:04:43.440Z,45.90
2023-06-19T19:07:11.521Z,46.90
2023-06-19T19:09:39.785Z,46.95
2023-06-19T19:12:11.920Z,47.58
2023-06-19T19:14:42.407Z,47.94
2023-06-19T19:17:10.902Z,48.59
2023-06-19T19:19:39.471Z,48.50
2023-06-19T19:22:07.615Z,48.87
2023-06-19T19:24:36.228Z,49.69
2023-06-19T19:27:04.797Z,50.74
2023-06-19T19:29:34.732Z,50.77
2023-06-19T19:32:03.264Z,50.69
2023-06-19T19:34:31.359Z,51.12
2023-06-19T19:36:59.523Z,51.42
2023-06-19T19:39:28.161Z,51.37
2023-06-19T19:41:56.268Z,53.04
2023-06-19T19:44:24.534Z,53.77
2023-06-19T19:46:55.282Z,53.98
2023-06-19T19:49:23.463Z,54.71
2023-06-19T19:51:51.600Z,55.21
2023-06-19T19:54:20.126Z,55.17
2023-06-19T19:56:48.322Z,55.98
2023-06-19T19:59:16.462Z,55.73
2023-06-19T20:01:45.153Z,55.75
2023-06-19T20:04:17.303Z,56.43
2023-06-19T20:06:46.429Z,56.56
2023-06-19T20:09:15.117Z,56.23
2023-06-19T20:11:43.347Z,56.89
2023-06-19T20:14:12.344Z,56.97
2023-06-19T20:16:40.568Z,57.21
2023-06-19T20:19:08.764Z,57.65
2023-06-19T20:21:39.037Z,58.09
2023-06-19T20:24:07.558Z,58.62
2023-06-19T20:26:35.649Z,58.98
2023-06-19T20:29:03.821Z,59.63
2023-06-19T20:31:32.494Z,60.25
2023-06-19T20:34:00.634Z,61.29
2023-06-19T20:36:29.285Z,62.29
2023-06-19T20:38:58.889Z,63.12
2023-06-19T20:41:27.922Z,62.96
2023-06-19T20:43:56.183Z,63.50
2023-06-19T20:46:24.569Z,63.52
2023-06-19T20:48:53.045Z,63.21
2023-06-19T20:51:21.996Z,63.35
2023-06-19T20:53:50.220Z,62.31
2023-06-19T20:56:20.029Z,63.42
2023-06-19T20:58:47.974Z,63.35
2023-06-19T21:01:16.307Z,63.42
2023-06-19T21:03:44.852Z,63.84
2023-06-19T21:06:13.107Z,64.53
2023-06-19T21:08:41.099Z,64.67
2023-06-19T21:11:09.553Z,64.67
2023-06-19T21:13:39.062Z,64.95
2023-06-19T21:16:07.238Z,65.08
2023-06-19T21:18:35.749Z,65.64
2023-06-19T21:21:03.767Z,65.48
2023-06-19T21:23:31.797Z,65.55
2023-06-19T21:26:00.290Z,65.52
2023-06-19T21:28:29.275Z,66.01
2023-06-19T21:30:58.660Z,66.11
2023-06-19T21:33:32.851Z,65.98
2023-06-19T21:36:00.866Z,65.96
2023-06-19T21:38:28.987Z,65.99
2023-06-19T21:40:57.692Z,65.96
2023-06-19T21:43:25.897Z,65.53
2023-06-19T21:45:55.138Z,66.46
2023-06-19T21:48:26.303Z,66.15
2023-06-19T21:50:54.878Z,66.57
2023-06-19T21:53:23.195Z,66.28
2023-06-19T21:55:51.796Z,65.93
2023-06-19T21:58:23.030Z,66.00
2023-06-19T22:00:51.552Z,66.62
2023-06-19T22:03:19.854Z,66.66
2023-06-19T22:05:49.907Z,67.43
2023-06-19T22:08:24.463Z,67.49
2023-06-19T22:11:02.603Z,67.00
2023-06-19T22:13:32.619Z,67.33
2023-06-19T22:16:00.934Z,67.86
2023-06-19T22:18:29.462Z,67.71
2023-06-19T22:20:58.963Z,67.71
2023-06-19T22:23:27.987Z,67.91
2023-06-19T22:25:56.679Z,67.80
2023-06-19T22:28:25.077Z,68.21
2023-06-19T22:30:53.067Z,68.11
2023-06-19T22:33:21.321Z,67.85
2023-06-19T22:35:50.393Z,68.38
2023-06-19T22:38:19.823Z,68.09
2023-06-19T22:40:48.313Z,68.67
2023-06-19T22:43:16.558Z,68.66
2023-06-19T22:45:44.883Z,69.08
2023-06-19T22:48:13.520Z,69.08
2023-06-19T22:50:41.595Z,69.49
2023-06-19T22:53:09.626Z,70.15
2023-06-19T22:55:39.439Z,70.46
2023-06-19T22:58:07.601Z,69.89
2023-06-19T23:00:36.249Z,70.00
2023-06-19T23:03:07.159Z,69.83
2023-06-19T23:05:35.533Z,69.62
2023-06-19T23:08:03.645Z,69.71
2023-06-19T23:10:32.168Z,70.26
2023-06-19T23:13:01.677Z,70.76
2023-06-19T23:15:29.841Z,71.05
2023-06-19T23:17:58.824Z,71.87
2023-06-19T23:20:27.014Z,72.28
2023-06-19T23:22:55.094Z,72.10
2023-06-19T23:25:25.617Z,71.99
2023-06-19T23:27:53.984Z,71.71
2023-06-19T23:30:24.394Z,72.03
2023-06-19T23:32:53.012Z,72.64
2023-06-19T23:35:24.101Z,72.93
2023-06-19T23:37:54.578Z,73.49
2023-06-19T23:40:22.633Z,73.82
2023-06-19T23:42:51.182Z,73.88
2023-06-19T23:45:19.210Z,74.34
2023-06-19T23:47:48.962Z,73.76
2023-06-19T23:50:18.280Z,73.82
2023-06-19T23:52:47.250Z,74.65
2023-06-19T23:55:15.608Z,74.71
2023-06-19T23:57:45.599Z,75.08
